sensor_id;sensor_type;location;lat;lon;timestamp;P1;durP1;ratioP1;P2;durP2;ratioP2
11203;SDS011;5659;49.408;11.116;2023-04-24T00:00:06;5.10;;;3.23;;
11203;SDS011;5659;49.408;11.116;2023-04-24T00:02:37;4.37;;;3.23;;
11203;SDS011;5659;49.408;11.116;2023-04-24T00:05:04;7.30;;;3.60;;
11203;SDS011;5659;49.408;11.116;2023-04-24T00:07:30;6.70;;;3.30;;
11203;SDS011;5659;49.408;11.116;2023-04-24T00:09:56;6.53;;;3.30;;
11203;SDS011;5659;49.408;11.116;2023-04-24T00:12:23;9.33;;;3.43;;
11203;SDS011;5659;49.408;11.116;2023-04-24T00:14:49;5.90;;;3.00;;
11203;SDS011;5659;49.408;11.116;2023-04-24T00:17:15;5.90;;;3.67;;
11203;SDS011;5659;49.408;11.116;2023-04-24T00:19:41;6.50;;;3.60;;
11203;SDS011;5659;49.408;11.116;2023-04-24T00:22:07;5.43;;;3.60;;
11203;SDS011;5659;49.408;11.116;2023-04-24T00:24:33;7.17;;;3.83;;
11203;SDS011;5659;49.408;11.116;2023-04-24T00:26:59;6.93;;;3.40;;
11203;SDS011;5659;49.408;11.116;2023-04-24T00:29:26;4.03;;;3.30;;
11203;SDS011;5659;49.408;11.116;2023-04-24T00:31:53;6.40;;;3.27;;
11203;SDS011;5659;49.408;11.116;2023-04-24T00:34:19;10.50;;;3.93;;
11203;SDS011;5659;49.408;11.116;2023-04-24T00:36:45;4.70;;;3.47;;
11203;SDS011;5659;49.408;11.116;2023-04-24T00:39:11;7.63;;;3.97;;
11203;SDS011;5659;49.408;11.116;2023-04-24T00:41:37;4.43;;;3.60;;
11203;SDS011;5659;49.408;11.116;2023-04-24T00:44:03;7.77;;;3.93;;
11203;SDS011;5659;49.408;11.116;2023-04-24T00:46:29;6.50;;;3.50;;
11203;SDS011;5659;49.408;11.116;2023-04-24T00:48:56;4.40;;;3.17;;
11203;SDS011;5659;49.408;11.116;2023-04-24T00:51:22;9.10;;;3.57;;
11203;SDS011;5659;49.408;11.116;2023-04-24T00:53:49;5.90;;;3.53;;
11203;SDS011;5659;49.408;11.116;2023-04-24T00:56:16;5.03;;;3.33;;
11203;SDS011;5659;49.408;11.116;2023-04-24T00:58:42;8.77;;;4.03;;
11203;SDS011;5659;49.408;11.116;2023-04-24T01:01:09;4.70;;;3.43;;
11203;SDS011;5659;49.408;11.116;2023-04-24T01:03:36;3.77;;;2.93;;
11203;SDS011;5659;49.408;11.116;2023-04-24T01:06:02;7.43;;;3.17;;
11203;SDS011;5659;49.408;11.116;2023-04-24T01:08:28;3.40;;;3.00;;
11203;SDS011;5659;49.408;11.116;2023-04-24T01:10:54;4.30;;;3.23;;
11203;SDS011;5659;49.408;11.116;2023-04-24T01:13:20;5.30;;;3.30;;
11203;SDS011;5659;49.408;11.116;2023-04-24T01:15:47;6.53;;;3.47;;
11203;SDS011;5659;49.408;11.116;2023-04-24T01:18:13;6.40;;;3.40;;
11203;SDS011;5659;49.408;11.116;2023-04-24T01:20:40;5.50;;;3.30;;
11203;SDS011;5659;49.408;11.116;2023-04-24T01:23:07;6.23;;;3.37;;
11203;SDS011;5659;49.408;11.116;2023-04-24T01:25:33;4.37;;;3.00;;
11203;SDS011;5659;49.408;11.116;2023-04-24T01:27:59;5.97;;;2.80;;
11203;SDS011;5659;49.408;11.116;2023-04-24T01:30:26;3.27;;;2.97;;
11203;SDS011;5659;49.408;11.116;2023-04-24T01:32:52;6.03;;;3.27;;
11203;SDS011;5659;49.408;11.116;2023-04-24T01:35:19;7.20;;;3.60;;
11203;SDS011;5659;49.408;11.116;2023-04-24T01:37:45;4.27;;;3.33;;
11203;SDS011;5659;49.408;11.116;2023-04-24T01:40:11;4.20;;;3.40;;
11203;SDS011;5659;49.408;11.116;2023-04-24T01:42:37;6.37;;;3.37;;
11203;SDS011;5659;49.408;11.116;2023-04-24T01:45:03;11.63;;;3.80;;
11203;SDS011;5659;49.408;11.116;2023-04-24T01:47:30;6.80;;;3.20;;
11203;SDS011;5659;49.408;11.116;2023-04-24T01:49:56;5.10;;;2.90;;
11203;SDS011;5659;49.408;11.116;2023-04-24T01:52:22;3.70;;;2.87;;
11203;SDS011;5659;49.408;11.116;2023-04-24T01:54:48;3.40;;;2.97;;
11203;SDS011;5659;49.408;11.116;2023-04-24T01:57:14;4.00;;;3.20;;
11203;SDS011;5659;49.408;11.116;2023-04-24T01:59:41;5.37;;;3.50;;
11203;SDS011;5659;49.408;11.116;2023-04-24T02:02:07;4.93;;;3.27;;
11203;SDS011;5659;49.408;11.116;2023-04-24T02:04:33;6.73;;;3.40;;
11203;SDS011;5659;49.408;11.116;2023-04-24T02:06:59;5.37;;;3.17;;
11203;SDS011;5659;49.408;11.116;2023-04-24T02:09:25;8.00;;;3.37;;
11203;SDS011;5659;49.408;11.116;2023-04-24T02:11:51;5.63;;;3.37;;
11203;SDS011;5659;49.408;11.116;2023-04-24T02:14:17;4.90;;;2.70;;
11203;SDS011;5659;49.408;11.116;2023-04-24T02:16:43;5.80;;;3.40;;
11203;SDS011;5659;49.408;11.116;2023-04-24T02:19:09;4.27;;;3.33;;
11203;SDS011;5659;49.408;11.116;2023-04-24T02:21:35;3.57;;;3.10;;
11203;SDS011;5659;49.408;11.116;2023-04-24T02:24:01;5.30;;;3.37;;
11203;SDS011;5659;49.408;11.116;2023-04-24T02:26:27;5.30;;;3.40;;
11203;SDS011;5659;49.408;11.116;2023-04-24T02:28:54;5.03;;;2.90;;
11203;SDS011;5659;49.408;11.116;2023-04-24T02:31:20;5.00;;;3.23;;
11203;SDS011;5659;49.408;11.116;2023-04-24T02:33:46;4.40;;;3.47;;
11203;SDS011;5659;49.408;11.116;2023-04-24T02:36:12;5.07;;;3.60;;
11203;SDS011;5659;49.408;11.116;2023-04-24T02:38:38;8.63;;;3.30;;
11203;SDS011;5659;49.408;11.116;2023-04-24T02:41:04;4.50;;;3.00;;
11203;SDS011;5659;49.408;11.116;2023-04-24T02:43:31;4.30;;;3.17;;
11203;SDS011;5659;49.408;11.116;2023-04-24T02:45:58;5.93;;;3.40;;
11203;SDS011;5659;49.408;11.116;2023-04-24T02:48:24;5.07;;;3.30;;
11203;SDS011;5659;49.408;11.116;2023-04-24T02:50:50;6.53;;;3.57;;
11203;SDS011;5659;49.408;11.116;2023-04-24T02:53:16;7.03;;;3.47;;
11203;SDS011;5659;49.408;11.116;2023-04-24T02:55:42;6.63;;;3.67;;
11203;SDS011;5659;49.408;11.116;2023-04-24T02:58:08;5.23;;;2.83;;
11203;SDS011;5659;49.408;11.116;2023-04-24T03:00:35;7.73;;;3.30;;
11203;SDS011;5659;49.408;11.116;2023-04-24T03:03:01;4.53;;;3.40;;
11203;SDS011;5659;49.408;11.116;2023-04-24T03:05:27;5.30;;;3.60;;
11203;SDS011;5659;49.408;11.116;2023-04-24T03:07:53;4.13;;;3.53;;
11203;SDS011;5659;49.408;11.116;2023-04-24T03:10:19;4.60;;;3.40;;
11203;SDS011;5659;49.408;11.116;2023-04-24T03:12:47;8.23;;;3.97;;
11203;SDS011;5659;49.408;11.116;2023-04-24T03:15:13;7.97;;;3.60;;
11203;SDS011;5659;49.408;11.116;2023-04-24T03:17:39;4.27;;;3.40;;
11203;SDS011;5659;49.408;11.116;2023-04-24T03:20:05;6.70;;;3.50;;
11203;SDS011;5659;49.408;11.116;2023-04-24T03:22:33;3.73;;;3.43;;
11203;SDS011;5659;49.408;11.116;2023-04-24T03:24:59;7.97;;;3.60;;
11203;SDS011;5659;49.408;11.116;2023-04-24T03:27:25;5.47;;;3.37;;
11203;SDS011;5659;49.408;11.116;2023-04-24T03:29:51;8.57;;;3.80;;
11203;SDS011;5659;49.408;11.116;2023-04-24T03:32:20;4.47;;;3.37;;
11203;SDS011;5659;49.408;11.116;2023-04-24T03:34:46;4.57;;;3.77;;
11203;SDS011;5659;49.408;11.116;2023-04-24T03:37:11;4.17;;;3.10;;
11203;SDS011;5659;49.408;11.116;2023-04-24T03:39:37;6.43;;;3.70;;
11203;SDS011;5659;49.408;11.116;2023-04-24T03:42:03;5.87;;;3.70;;
11203;SDS011;5659;49.408;11.116;2023-04-24T03:44:29;4.87;;;3.43;;
11203;SDS011;5659;49.408;11.116;2023-04-24T03:46:55;6.10;;;3.67;;
11203;SDS011;5659;49.408;11.116;2023-04-24T03:49:21;5.57;;;4.40;;
11203;SDS011;5659;49.408;11.116;2023-04-24T03:51:47;6.80;;;4.33;;
11203;SDS011;5659;49.408;11.116;2023-04-24T03:54:13;5.97;;;3.90;;
11203;SDS011;5659;49.408;11.116;2023-04-24T03:56:39;8.03;;;3.90;;
11203;SDS011;5659;49.408;11.116;2023-04-24T03:59:05;7.97;;;4.13;;
11203;SDS011;5659;49.408;11.116;2023-04-24T04:01:31;5.37;;;4.00;;
11203;SDS011;5659;49.408;11.116;2023-04-24T04:03:57;6.60;;;3.97;;
11203;SDS011;5659;49.408;11.116;2023-04-24T04:06:23;8.10;;;4.10;;
11203;SDS011;5659;49.408;11.116;2023-04-24T04:08:49;5.53;;;4.03;;
11203;SDS011;5659;49.408;11.116;2023-04-24T04:11:15;4.73;;;3.60;;
11203;SDS011;5659;49.408;11.116;2023-04-24T04:13:41;8.77;;;4.00;;
11203;SDS011;5659;49.408;11.116;2023-04-24T04:16:07;7.87;;;4.23;;
11203;SDS011;5659;49.408;11.116;2023-04-24T04:18:34;5.73;;;3.53;;
11203;SDS011;5659;49.408;11.116;2023-04-24T04:21:00;5.53;;;3.43;;
11203;SDS011;5659;49.408;11.116;2023-04-24T04:23:26;6.27;;;4.00;;
11203;SDS011;5659;49.408;11.116;2023-04-24T04:25:53;4.17;;;3.70;;
11203;SDS011;5659;49.408;11.116;2023-04-24T04:28:19;6.27;;;4.27;;
11203;SDS011;5659;49.408;11.116;2023-04-24T04:30:46;7.90;;;4.83;;
11203;SDS011;5659;49.408;11.116;2023-04-24T04:33:12;7.87;;;5.43;;
11203;SDS011;5659;49.408;11.116;2023-04-24T04:35:39;6.90;;;5.00;;
11203;SDS011;5659;49.408;11.116;2023-04-24T04:38:05;5.97;;;5.10;;
11203;SDS011;5659;49.408;11.116;2023-04-24T04:40:33;8.13;;;5.53;;
11203;SDS011;5659;49.408;11.116;2023-04-24T04:42:59;7.10;;;5.67;;
11203;SDS011;5659;49.408;11.116;2023-04-24T04:45:25;9.77;;;6.07;;
11203;SDS011;5659;49.408;11.116;2023-04-24T04:47:52;9.00;;;5.93;;
11203;SDS011;5659;49.408;11.116;2023-04-24T04:50:20;8.33;;;6.40;;
11203;SDS011;5659;49.408;11.116;2023-04-24T04:52:45;9.20;;;6.73;;
11203;SDS011;5659;49.408;11.116;2023-04-24T04:55:11;11.80;;;6.93;;
11203;SDS011;5659;49.408;11.116;2023-04-24T04:57:38;10.10;;;6.97;;
11203;SDS011;5659;49.408;11.116;2023-04-24T05:00:04;7.37;;;6.10;;
11203;SDS011;5659;49.408;11.116;2023-04-24T05:02:31;9.77;;;6.90;;
11203;SDS011;5659;49.408;11.116;2023-04-24T05:04:57;9.33;;;6.60;;
11203;SDS011;5659;49.408;11.116;2023-04-24T05:07:23;8.93;;;5.57;;
11203;SDS011;5659;49.408;11.116;2023-04-24T05:09:49;9.50;;;5.93;;
11203;SDS011;5659;49.408;11.116;2023-04-24T05:12:17;7.50;;;5.70;;
11203;SDS011;5659;49.408;11.116;2023-04-24T05:14:43;8.33;;;5.27;;
11203;SDS011;5659;49.408;11.116;2023-04-24T05:17:09;9.93;;;5.47;;
11203;SDS011;5659;49.408;11.116;2023-04-24T05:19:35;11.03;;;5.60;;
11203;SDS011;5659;49.408;11.116;2023-04-24T05:22:02;8.93;;;5.23;;
11203;SDS011;5659;49.408;11.116;2023-04-24T05:24:31;10.57;;;5.53;;
11203;SDS011;5659;49.408;11.116;2023-04-24T05:26:57;10.43;;;6.20;;
11203;SDS011;5659;49.408;11.116;2023-04-24T05:29:23;8.23;;;5.40;;
11203;SDS011;5659;49.408;11.116;2023-04-24T05:31:50;14.47;;;5.23;;
11203;SDS011;5659;49.408;11.116;2023-04-24T05:34:16;12.13;;;5.30;;
11203;SDS011;5659;49.408;11.116;2023-04-24T05:36:42;8.47;;;5.50;;
11203;SDS011;5659;49.408;11.116;2023-04-24T05:39:08;9.47;;;5.30;;
11203;SDS011;5659;49.408;11.116;2023-04-24T05:41:34;12.43;;;5.33;;
11203;SDS011;5659;49.408;11.116;2023-04-24T05:44:00;7.00;;;5.33;;
11203;SDS011;5659;49.408;11.116;2023-04-24T05:46:26;7.63;;;4.73;;
11203;SDS011;5659;49.408;11.116;2023-04-24T05:48:52;8.90;;;5.17;;
11203;SDS011;5659;49.408;11.116;2023-04-24T05:51:18;9.20;;;5.10;;
11203;SDS011;5659;49.408;11.116;2023-04-24T05:53:44;6.93;;;4.93;;
11203;SDS011;5659;49.408;11.116;2023-04-24T05:56:10;6.00;;;5.13;;
11203;SDS011;5659;49.408;11.116;2023-04-24T05:58:36;8.63;;;5.27;;
11203;SDS011;5659;49.408;11.116;2023-04-24T06:01:02;5.20;;;4.70;;
11203;SDS011;5659;49.408;11.116;2023-04-24T06:03:28;11.53;;;4.77;;
11203;SDS011;5659;49.408;11.116;2023-04-24T06:05:54;7.20;;;4.40;;
11203;SDS011;5659;49.408;11.116;2023-04-24T06:08:20;5.57;;;4.57;;
11203;SDS011;5659;49.408;11.116;2023-04-24T06:10:46;4.90;;;3.90;;
11203;SDS011;5659;49.408;11.116;2023-04-24T06:13:12;6.60;;;3.90;;
11203;SDS011;5659;49.408;11.116;2023-04-24T06:15:38;9.73;;;4.10;;
11203;SDS011;5659;49.408;11.116;2023-04-24T06:18:05;273.65;;;20.70;;
11203;SDS011;5659;49.408;11.116;2023-04-24T06:20:31;21.63;;;4.78;;
11203;SDS011;5659;49.408;11.116;2023-04-24T06:22:57;5.40;;;3.13;;
11203;SDS011;5659;49.408;11.116;2023-04-24T06:25:26;6.13;;;3.65;;
11203;SDS011;5659;49.408;11.116;2023-04-24T06:27:52;4.15;;;2.55;;
11203;SDS011;5659;49.408;11.116;2023-04-24T06:30:18;23.55;;;4.18;;
11203;SDS011;5659;49.408;11.116;2023-04-24T06:32:44;33.58;;;5.65;;
11203;SDS011;5659;49.408;11.116;2023-04-24T06:35:10;12.00;;;3.40;;
11203;SDS011;5659;49.408;11.116;2023-04-24T06:37:37;145.13;;;13.50;;
11203;SDS011;5659;49.408;11.116;2023-04-24T06:40:03;7.22;;;3.40;;
11203;SDS011;5659;49.408;11.116;2023-04-24T06:42:29;4.35;;;2.70;;
11203;SDS011;5659;49.408;11.116;2023-04-24T06:44:55;3.30;;;2.22;;
11203;SDS011;5659;49.408;11.116;2023-04-24T06:47:21;2.72;;;2.25;;
11203;SDS011;5659;49.408;11.116;2023-04-24T06:49:47;3.08;;;1.88;;
11203;SDS011;5659;49.408;11.116;2023-04-24T06:52:15;4.28;;;1.80;;
11203;SDS011;5659;49.408;11.116;2023-04-24T06:54:41;2.43;;;1.70;;
11203;SDS011;5659;49.408;11.116;2023-04-24T06:57:08;4.18;;;1.88;;
11203;SDS011;5659;49.408;11.116;2023-04-24T06:59:33;4.25;;;1.70;;
11203;SDS011;5659;49.408;11.116;2023-04-24T07:02:00;3.63;;;2.00;;
11203;SDS011;5659;49.408;11.116;2023-04-24T07:04:26;2.55;;;1.70;;
11203;SDS011;5659;49.408;11.116;2023-04-24T07:06:53;6.90;;;1.60;;
11203;SDS011;5659;49.408;11.116;2023-04-24T07:09:23;3.20;;;1.50;;
11203;SDS011;5659;49.408;11.116;2023-04-24T07:11:50;4.72;;;1.77;;
11203;SDS011;5659;49.408;11.116;2023-04-24T07:14:16;3.00;;;1.50;;
11203;SDS011;5659;49.408;11.116;2023-04-24T07:16:42;3.40;;;1.30;;
11203;SDS011;5659;49.408;11.116;2023-04-24T07:19:08;5.18;;;1.35;;
11203;SDS011;5659;49.408;11.116;2023-04-24T07:21:35;2.35;;;1.42;;
11203;SDS011;5659;49.408;11.116;2023-04-24T07:24:00;2.83;;;1.48;;
11203;SDS011;5659;49.408;11.116;2023-04-24T07:26:27;3.15;;;1.73;;
11203;SDS011;5659;49.408;11.116;2023-04-24T07:28:53;2.50;;;1.45;;
11203;SDS011;5659;49.408;11.116;2023-04-24T07:31:20;2.15;;;1.55;;
11203;SDS011;5659;49.408;11.116;2023-04-24T07:33:46;2.65;;;1.45;;
11203;SDS011;5659;49.408;11.116;2023-04-24T07:36:12;4.90;;;1.67;;
11203;SDS011;5659;49.408;11.116;2023-04-24T07:38:42;4.35;;;1.48;;
11203;SDS011;5659;49.408;11.116;2023-04-24T07:41:08;2.00;;;1.80;;
11203;SDS011;5659;49.408;11.116;2023-04-24T07:43:34;3.60;;;2.10;;
11203;SDS011;5659;49.408;11.116;2023-04-24T07:46:00;5.17;;;1.90;;
11203;SDS011;5659;49.408;11.116;2023-04-24T07:48:26;2.33;;;1.98;;
11203;SDS011;5659;49.408;11.116;2023-04-24T07:50:53;1.85;;;1.73;;
11203;SDS011;5659;49.408;11.116;2023-04-24T07:53:19;2.17;;;1.67;;
11203;SDS011;5659;49.408;11.116;2023-04-24T07:55:45;2.83;;;1.73;;
11203;SDS011;5659;49.408;11.116;2023-04-24T07:58:11;1.97;;;1.80;;
11203;SDS011;5659;49.408;11.116;2023-04-24T08:00:37;3.47;;;1.75;;
11203;SDS011;5659;49.408;11.116;2023-04-24T08:03:03;2.35;;;2.15;;
11203;SDS011;5659;49.408;11.116;2023-04-24T08:05:29;3.05;;;2.03;;
11203;SDS011;5659;49.408;11.116;2023-04-24T08:07:55;3.83;;;2.00;;
11203;SDS011;5659;49.408;11.116;2023-04-24T08:10:22;3.72;;;2.05;;
11203;SDS011;5659;49.408;11.116;2023-04-24T08:12:48;3.13;;;2.17;;
11203;SDS011;5659;49.408;11.116;2023-04-24T08:15:14;2.42;;;2.03;;
11203;SDS011;5659;49.408;11.116;2023-04-24T08:17:40;3.35;;;2.10;;
11203;SDS011;5659;49.408;11.116;2023-04-24T08:20:06;2.33;;;2.05;;
11203;SDS011;5659;49.408;11.116;2023-04-24T08:22:38;4.65;;;2.10;;
11203;SDS011;5659;49.408;11.116;2023-04-24T08:25:04;2.63;;;2.00;;
11203;SDS011;5659;49.408;11.116;2023-04-24T08:27:30;6.07;;;2.13;;
11203;SDS011;5659;49.408;11.116;2023-04-24T08:29:56;4.93;;;2.50;;
11203;SDS011;5659;49.408;11.116;2023-04-24T08:32:23;2.63;;;2.25;;
11203;SDS011;5659;49.408;11.116;2023-04-24T08:34:50;3.83;;;2.40;;
11203;SDS011;5659;49.408;11.116;2023-04-24T08:37:17;2.78;;;2.03;;
11203;SDS011;5659;49.408;11.116;2023-04-24T08:39:43;2.85;;;2.55;;
11203;SDS011;5659;49.408;11.116;2023-04-24T08:42:09;5.35;;;2.70;;
11203;SDS011;5659;49.408;11.116;2023-04-24T08:44:37;4.03;;;2.80;;
11203;SDS011;5659;49.408;11.116;2023-04-24T08:47:03;3.92;;;2.58;;
11203;SDS011;5659;49.408;11.116;2023-04-24T08:49:29;5.63;;;2.90;;
11203;SDS011;5659;49.408;11.116;2023-04-24T08:51:55;3.08;;;2.33;;
11203;SDS011;5659;49.408;11.116;2023-04-24T08:54:21;4.45;;;2.53;;
11203;SDS011;5659;49.408;11.116;2023-04-24T08:56:48;3.85;;;2.60;;
11203;SDS011;5659;49.408;11.116;2023-04-24T08:59:14;4.38;;;2.35;;
11203;SDS011;5659;49.408;11.116;2023-04-24T09:01:41;2.78;;;2.40;;
11203;SDS011;5659;49.408;11.116;2023-04-24T09:04:08;3.33;;;2.13;;
11203;SDS011;5659;49.408;11.116;2023-04-24T09:06:38;5.05;;;2.28;;
11203;SDS011;5659;49.408;11.116;2023-04-24T09:09:04;3.78;;;2.08;;
11203;SDS011;5659;49.408;11.116;2023-04-24T09:11:30;4.38;;;2.20;;
11203;SDS011;5659;49.408;11.116;2023-04-24T09:13:57;2.50;;;2.30;;
11203;SDS011;5659;49.408;11.116;2023-04-24T09:16:24;4.65;;;2.15;;
11203;SDS011;5659;49.408;11.116;2023-04-24T09:18:51;3.13;;;2.30;;
11203;SDS011;5659;49.408;11.116;2023-04-24T09:21:17;2.92;;;1.95;;
11203;SDS011;5659;49.408;11.116;2023-04-24T09:23:43;2.83;;;2.10;;
11203;SDS011;5659;49.408;11.116;2023-04-24T09:26:09;2.45;;;1.98;;
11203;SDS011;5659;49.408;11.116;2023-04-24T09:28:36;5.45;;;2.30;;
11203;SDS011;5659;49.408;11.116;2023-04-24T09:31:09;2.70;;;2.10;;
11203;SDS011;5659;49.408;11.116;2023-04-24T09:33:35;2.33;;;2.00;;
11203;SDS011;5659;49.408;11.116;2023-04-24T09:36:02;6.15;;;2.22;;
11203;SDS011;5659;49.408;11.116;2023-04-24T09:38:32;2.78;;;1.95;;
11203;SDS011;5659;49.408;11.116;2023-04-24T09:41:05;4.43;;;2.10;;
11203;SDS011;5659;49.408;11.116;2023-04-24T09:43:34;5.10;;;2.20;;
11203;SDS011;5659;49.408;11.116;2023-04-24T09:46:04;2.28;;;2.00;;
11203;SDS011;5659;49.408;11.116;2023-04-24T09:48:31;2.70;;;2.00;;
11203;SDS011;5659;49.408;11.116;2023-04-24T09:50:57;3.03;;;2.30;;
11203;SDS011;5659;49.408;11.116;2023-04-24T09:53:24;3.65;;;2.30;;
11203;SDS011;5659;49.408;11.116;2023-04-24T09:55:51;4.63;;;2.28;;
11203;SDS011;5659;49.408;11.116;2023-04-24T09:58:18;4.53;;;1.92;;
11203;SDS011;5659;49.408;11.116;2023-04-24T10:00:44;6.18;;;1.75;;
11203;SDS011;5659;49.408;11.116;2023-04-24T10:03:11;3.30;;;1.77;;
11203;SDS011;5659;49.408;11.116;2023-04-24T10:05:37;4.00;;;1.70;;
11203;SDS011;5659;49.408;11.116;2023-04-24T10:08:10;2.97;;;1.90;;
11203;SDS011;5659;49.408;11.116;2023-04-24T10:10:43;2.28;;;1.65;;
11203;SDS011;5659;49.408;11.116;2023-04-24T10:13:10;2.72;;;1.95;;
11203;SDS011;5659;49.408;11.116;2023-04-24T10:15:36;3.22;;;1.98;;
11203;SDS011;5659;49.408;11.116;2023-04-24T10:18:04;1.80;;;1.70;;
11203;SDS011;5659;49.408;11.116;2023-04-24T10:20:31;4.10;;;1.90;;
11203;SDS011;5659;49.408;11.116;2023-04-24T10:22:58;2.67;;;1.70;;
11203;SDS011;5659;49.408;11.116;2023-04-24T10:25:25;2.40;;;1.63;;
11203;SDS011;5659;49.408;11.116;2023-04-24T10:27:52;2.30;;;1.88;;
11203;SDS011;5659;49.408;11.116;2023-04-24T10:30:22;5.93;;;1.95;;
11203;SDS011;5659;49.408;11.116;2023-04-24T10:32:48;4.55;;;1.95;;
11203;SDS011;5659;49.408;11.116;2023-04-24T10:35:14;4.53;;;1.90;;
11203;SDS011;5659;49.408;11.116;2023-04-24T10:37:42;1.95;;;1.52;;
11203;SDS011;5659;49.408;11.116;2023-04-24T10:40:09;6.57;;;1.70;;
11203;SDS011;5659;49.408;11.116;2023-04-24T10:42:35;1.80;;;1.50;;
11203;SDS011;5659;49.408;11.116;2023-04-24T10:45:06;2.03;;;1.60;;
11203;SDS011;5659;49.408;11.116;2023-04-24T10:47:41;6.20;;;1.70;;
11203;SDS011;5659;49.408;11.116;2023-04-24T10:50:10;2.83;;;1.40;;
11203;SDS011;5659;49.408;11.116;2023-04-24T10:52:46;2.65;;;1.30;;
11203;SDS011;5659;49.408;11.116;2023-04-24T10:55:12;1.30;;;1.10;;
11203;SDS011;5659;49.408;11.116;2023-04-24T11:00:43;2.13;;;1.35;;
11203;SDS011;5659;49.408;11.116;2023-04-24T11:03:32;3.40;;;1.60;;
11203;SDS011;5659;49.408;11.116;2023-04-24T11:06:17;3.20;;;1.50;;
11203;SDS011;5659;49.408;11.116;2023-04-24T11:08:43;2.60;;;1.30;;
11203;SDS011;5659;49.408;11.116;2023-04-24T11:18:49;3.47;;;1.30;;
11203;SDS011;5659;49.408;11.116;2023-04-24T11:21:18;1.40;;;1.30;;
11203;SDS011;5659;49.408;11.116;2023-04-24T11:23:44;4.25;;;1.13;;
11203;SDS011;5659;49.408;11.116;2023-04-24T11:26:12;1.35;;;1.25;;
11203;SDS011;5659;49.408;11.116;2023-04-24T11:28:43;1.92;;;1.20;;
11203;SDS011;5659;49.408;11.116;2023-04-24T11:33:54;1.52;;;1.40;;
11203;SDS011;5659;49.408;11.116;2023-04-24T11:36:20;3.50;;;1.30;;
11203;SDS011;5659;49.408;11.116;2023-04-24T11:38:46;1.60;;;1.50;;
11203;SDS011;5659;49.408;11.116;2023-04-24T11:41:12;2.28;;;1.40;;
11203;SDS011;5659;49.408;11.116;2023-04-24T11:43:39;1.67;;;1.50;;
11203;SDS011;5659;49.408;11.116;2023-04-24T11:46:05;1.50;;;1.33;;
11203;SDS011;5659;49.408;11.116;2023-04-24T11:48:34;2.50;;;1.60;;
11203;SDS011;5659;49.408;11.116;2023-04-24T11:51:05;2.20;;;1.80;;
11203;SDS011;5659;49.408;11.116;2023-04-24T11:53:31;1.70;;;1.60;;
11203;SDS011;5659;49.408;11.116;2023-04-24T11:56:01;2.10;;;1.70;;
11203;SDS011;5659;49.408;11.116;2023-04-24T11:59:01;2.35;;;1.70;;
11203;SDS011;5659;49.408;11.116;2023-04-24T12:01:21;3.72;;;1.70;;
11203;SDS011;5659;49.408;11.116;2023-04-24T12:03:48;3.83;;;1.90;;
11203;SDS011;5659;49.408;11.116;2023-04-24T12:06:15;1.40;;;1.30;;
11203;SDS011;5659;49.408;11.116;2023-04-24T12:08:41;2.72;;;1.60;;
11203;SDS011;5659;49.408;11.116;2023-04-24T12:11:11;1.88;;;1.70;;
11203;SDS011;5659;49.408;11.116;2023-04-24T12:13:37;4.38;;;1.58;;
11203;SDS011;5659;49.408;11.116;2023-04-24T12:16:03;1.60;;;1.50;;
11203;SDS011;5659;49.408;11.116;2023-04-24T12:18:30;1.90;;;1.60;;
11203;SDS011;5659;49.408;11.116;2023-04-24T12:21:14;3.13;;;2.00;;
11203;SDS011;5659;49.408;11.116;2023-04-24T12:23:42;4.35;;;1.55;;
11203;SDS011;5659;49.408;11.116;2023-04-24T12:26:08;1.70;;;1.60;;
11203;SDS011;5659;49.408;11.116;2023-04-24T12:28:37;2.80;;;1.80;;
11203;SDS011;5659;49.408;11.116;2023-04-24T12:31:04;1.95;;;1.60;;
11203;SDS011;5659;49.408;11.116;2023-04-24T12:33:33;3.72;;;1.83;;
11203;SDS011;5659;49.408;11.116;2023-04-24T12:36:00;1.60;;;1.50;;
11203;SDS011;5659;49.408;11.116;2023-04-24T12:38:27;3.25;;;2.13;;
11203;SDS011;5659;49.408;11.116;2023-04-24T12:41:02;2.22;;;1.88;;
11203;SDS011;5659;49.408;11.116;2023-04-24T12:43:29;2.63;;;1.75;;
11203;SDS011;5659;49.408;11.116;2023-04-24T12:45:55;3.75;;;1.50;;
11203;SDS011;5659;49.408;11.116;2023-04-24T12:48:21;1.83;;;1.52;;
11203;SDS011;5659;49.408;11.116;2023-04-24T12:50:48;1.65;;;1.55;;
11203;SDS011;5659;49.408;11.116;2023-04-24T12:53:14;1.95;;;1.50;;
11203;SDS011;5659;49.408;11.116;2023-04-24T12:55:40;1.65;;;1.48;;
11203;SDS011;5659;49.408;11.116;2023-04-24T12:58:07;1.50;;;1.40;;
11203;SDS011;5659;49.408;11.116;2023-04-24T13:00:33;2.50;;;1.55;;
11203;SDS011;5659;49.408;11.116;2023-04-24T13:02:59;1.50;;;1.40;;
11203;SDS011;5659;49.408;11.116;2023-04-24T13:05:25;2.78;;;1.60;;
11203;SDS011;5659;49.408;11.116;2023-04-24T13:07:51;2.78;;;1.90;;
11203;SDS011;5659;49.408;11.116;2023-04-24T13:10:17;2.63;;;1.73;;
11203;SDS011;5659;49.408;11.116;2023-04-24T13:12:44;2.38;;;1.60;;
11203;SDS011;5659;49.408;11.116;2023-04-24T13:15:11;1.73;;;1.50;;
11203;SDS011;5659;49.408;11.116;2023-04-24T13:17:37;1.90;;;1.50;;
11203;SDS011;5659;49.408;11.116;2023-04-24T13:20:03;2.38;;;1.60;;
11203;SDS011;5659;49.408;11.116;2023-04-24T13:22:30;2.15;;;1.40;;
11203;SDS011;5659;49.408;11.116;2023-04-24T13:24:56;1.77;;;1.35;;
11203;SDS011;5659;49.408;11.116;2023-04-24T13:27:22;3.67;;;1.85;;
11203;SDS011;5659;49.408;11.116;2023-04-24T13:29:48;2.83;;;1.80;;
11203;SDS011;5659;49.408;11.116;2023-04-24T13:32:14;4.40;;;1.90;;
11203;SDS011;5659;49.408;11.116;2023-04-24T13:34:40;2.00;;;1.60;;
11203;SDS011;5659;49.408;11.116;2023-04-24T13:37:06;2.08;;;1.88;;
11203;SDS011;5659;49.408;11.116;2023-04-24T13:39:33;2.22;;;1.65;;
11203;SDS011;5659;49.408;11.116;2023-04-24T13:42:02;4.82;;;1.77;;
11203;SDS011;5659;49.408;11.116;2023-04-24T13:44:28;2.80;;;1.90;;
11203;SDS011;5659;49.408;11.116;2023-04-24T13:46:54;2.20;;;1.80;;
11203;SDS011;5659;49.408;11.116;2023-04-24T13:49:22;2.80;;;2.10;;
11203;SDS011;5659;49.408;11.116;2023-04-24T13:51:50;2.60;;;2.08;;
11203;SDS011;5659;49.408;11.116;2023-04-24T13:54:16;2.83;;;2.00;;
11203;SDS011;5659;49.408;11.116;2023-04-24T13:56:42;2.47;;;2.13;;
11203;SDS011;5659;49.408;11.116;2023-04-24T13:59:08;3.33;;;2.45;;
11203;SDS011;5659;49.408;11.116;2023-04-24T14:01:34;4.55;;;2.50;;
11203;SDS011;5659;49.408;11.116;2023-04-24T14:04:00;4.22;;;2.67;;
11203;SDS011;5659;49.408;11.116;2023-04-24T14:06:26;3.35;;;2.40;;
11203;SDS011;5659;49.408;11.116;2023-04-24T14:08:53;2.35;;;2.15;;
11203;SDS011;5659;49.408;11.116;2023-04-24T14:11:19;5.38;;;3.30;;
11203;SDS011;5659;49.408;11.116;2023-04-24T14:13:45;4.25;;;2.60;;
11203;SDS011;5659;49.408;11.116;2023-04-24T14:16:11;3.55;;;2.40;;
11203;SDS011;5659;49.408;11.116;2023-04-24T14:18:37;3.65;;;2.38;;
11203;SDS011;5659;49.408;11.116;2023-04-24T14:21:03;2.35;;;2.15;;
11203;SDS011;5659;49.408;11.116;2023-04-24T14:23:30;1.90;;;1.80;;
11203;SDS011;5659;49.408;11.116;2023-04-24T14:25:56;3.53;;;1.73;;
11203;SDS011;5659;49.408;11.116;2023-04-24T14:28:22;2.38;;;1.63;;
11203;SDS011;5659;49.408;11.116;2023-04-24T14:30:49;1.65;;;1.55;;
11203;SDS011;5659;49.408;11.116;2023-04-24T14:33:15;3.15;;;1.75;;
11203;SDS011;5659;49.408;11.116;2023-04-24T14:35:41;3.92;;;2.10;;
11203;SDS011;5659;49.408;11.116;2023-04-24T14:38:07;3.00;;;1.70;;
11203;SDS011;5659;49.408;11.116;2023-04-24T14:40:34;2.38;;;2.03;;
11203;SDS011;5659;49.408;11.116;2023-04-24T14:43:00;1.80;;;1.70;;
11203;SDS011;5659;49.408;11.116;2023-04-24T14:45:26;2.40;;;1.52;;
11203;SDS011;5659;49.408;11.116;2023-04-24T14:47:52;5.65;;;2.20;;
11203;SDS011;5659;49.408;11.116;2023-04-24T14:50:18;1.90;;;1.80;;
11203;SDS011;5659;49.408;11.116;2023-04-24T14:52:44;3.50;;;2.20;;
11203;SDS011;5659;49.408;11.116;2023-04-24T14:55:11;2.75;;;2.00;;
11203;SDS011;5659;49.408;11.116;2023-04-24T14:57:37;2.63;;;2.20;;